Time;durP1;ratioP1;P1;durP2;ratioP2;P2;SDS_P1;SDS_P2;PMS_P1;PMS_P2;Temp;Humidity;BMP_temperature;BMP_pressure;BME280_temperature;BME280_humidity;BME280_pressure;Samples;Min_cycle;Max_cycle;Signal;HPM_P1;HPM_P2
2023/10/07 00:00:47;;;;;;;17.13;4.25;;;;;;;16.91;100.00;101692.09;5068008;28;20420;-74
2023/10/07 00:03:17;;;;;;;13.18;4.80;;;;;;;16.89;100.00;101684.13;5054632;28;20724;-74
2023/10/07 00:05:50;;;;;;;15.02;4.80;;;;;;;16.90;100.00;101685.91;5045022;28;20044;-74
2023/10/07 00:08:26;;;;;;;16.05;4.43;;;;;;;16.90;100.00;101679.66;5056377;28;20473;-74
2023/10/07 00:10:58;;;;;;;20.60;4.20;;;;;;;16.88;100.00;101687.69;5024297;28;20044;-74
2023/10/07 00:13:30;;;;;;;14.05;4.38;;;;;;;16.87;100.00;101677.06;5060383;28;20051;-75
2023/10/07 00:15:59;;;;;;;18.88;4.18;;;;;;;16.85;100.00;101677.06;5061442;28;20049;-75
2023/10/07 00:18:28;;;;;;;14.70;3.97;;;;;;;16.84;100.00;101674.41;5042971;28;20041;-75
2023/10/07 00:20:55;;;;;;;14.80;4.05;;;;;;;16.83;100.00;101665.56;5042101;28;20052;-74
2023/10/07 00:23:28;;;;;;;15.63;4.07;;;;;;;16.83;100.00;101668.22;5065277;28;20045;-76
2023/10/07 00:26:00;;;;;;;17.08;4.28;;;;;;;16.83;100.00;101673.53;5003109;28;20052;-74
2023/10/07 00:28:31;;;;;;;19.85;4.60;;;;;;;16.83;100.00;101670.88;5031143;28;20072;-74
2023/10/07 00:31:04;;;;;;;11.20;4.43;;;;;;;16.81;100.00;101671.78;5027717;28;20048;-74
2023/10/07 00:33:49;;;;;;;15.48;4.68;;;;;;;16.78;100.00;101672.66;5046271;28;20052;-74
2023/10/07 00:36:41;;;;;;;16.92;4.70;;;;;;;16.72;100.00;101676.25;5042631;28;20577;-74
2023/10/07 00:39:09;;;;;;;;;;;;;;;16.66;100.00;101676.31;5048358;28;20048;-75
2023/10/07 00:41:45;;;;;;;19.83;5.15;;;;;;;16.61;100.00;101672.81;5012152;28;19936;-74
2023/10/07 00:44:22;;;;;;;14.18;4.47;;;;;;;16.58;100.00;101672.84;5057723;28;20041;-74
2023/10/07 00:47:11;;;;;;;22.35;5.18;;;;;;;16.55;100.00;101667.53;5038037;28;20056;-74
2023/10/07 00:49:42;;;;;;;16.02;4.50;;;;;;;16.53;100.00;101677.31;5052644;28;20048;-74
2023/10/07 00:52:14;;;;;;;22.10;5.53;;;;;;;16.49;100.00;101671.16;5055414;28;20504;-74
2023/10/07 00:59:58;;;;;;;;;;;;;;;16.46;100.00;101672.94;5066062;28;20418;-74
2023/10/07 01:02:31;;;;;;;16.92;4.65;;;;;;;16.44;100.00;101666.75;5061242;28;19920;-74
2023/10/07 01:05:07;;;;;;;18.55;4.25;;;;;;;16.43;100.00;101657.91;5055720;28;20052;-74
2023/10/07 01:07:34;;;;;;;21.88;5.35;;;;;;;16.44;100.00;101672.06;5037090;28;20098;-74
2023/10/07 01:12:38;;;;;;;19.45;5.05;;;;;;;16.44;100.00;101680.06;5019463;28;20059;-74
2023/10/07 01:17:47;;;;;;;18.67;5.20;;;;;;;16.43;100.00;101675.66;5056846;28;20036;-75
2023/10/07 01:20:15;;;;;;;17.08;5.10;;;;;;;16.42;100.00;101672.06;5029841;28;20044;-75
2023/10/07 01:23:02;;;;;;;24.00;5.18;;;;;;;16.42;100.00;101679.19;5034861;28;20067;-75
2023/10/07 01:25:35;;;;;;;14.82;4.78;;;;;;;16.41;100.00;101664.09;5045437;28;20538;-74
2023/10/07 01:28:04;;;;;;;22.63;5.65;;;;;;;16.38;100.00;101671.22;5035826;28;20041;-75
2023/10/07 01:30:34;;;;;;;15.52;5.22;;;;;;;16.39;100.00;101666.81;5063441;28;20052;-74
2023/10/07 01:33:08;;;;;;;12.65;4.45;;;;;;;16.37;100.00;101658.84;5068139;28;20040;-75
2023/10/07 01:35:39;;;;;;;15.73;4.90;;;;;;;16.37;100.00;101664.16;5050731;28;20056;-74
2023/10/07 01:38:07;;;;;;;22.33;5.93;;;;;;;16.36;100.00;101654.41;5032549;28;20075;-76
2023/10/07 01:40:55;;;;;;;17.77;5.50;;;;;;;16.36;100.00;101661.50;5023888;28;20452;-74
2023/10/07 01:43:24;;;;;;;20.08;5.82;;;;;;;16.34;100.00;101665.94;5008182;28;20040;-73
2023/10/07 01:45:53;;;;;;;16.27;5.47;;;;;;;16.34;100.00;101669.47;5066359;28;20052;-76
2023/10/07 01:48:20;;;;;;;17.75;5.88;;;;;;;16.32;100.00;101668.63;5046196;28;20060;-74
2023/10/07 01:50:50;;;;;;;23.85;5.70;;;;;;;16.32;100.00;101671.28;5056499;28;20041;-74
2023/10/07 01:53:17;;;;;;;18.85;5.32;;;;;;;16.32;100.00;101671.28;5023763;28;20044;-76
2023/10/07 01:55:46;;;;;;;12.98;4.70;;;;;;;16.33;100.00;101672.16;5033383;28;20041;-74
2023/10/07 01:58:19;;;;;;;16.88;4.70;;;;;;;16.33;100.00;101674.81;5007737;28;20068;-74
2023/10/07 02:00:51;;;;;;;16.55;5.03;;;;;;;16.34;100.00;101673.94;5063380;28;20589;-74
2023/10/07 02:03:23;;;;;;;18.80;4.75;;;;;;;16.34;100.00;101680.13;5044771;28;20040;-74
2023/10/07 02:05:52;;;;;;;15.32;4.90;;;;;;;16.35;100.00;101673.00;5046110;28;20661;-74
2023/10/07 02:08:22;;;;;;;17.13;4.43;;;;;;;16.35;100.00;101673.91;5034111;28;20119;-74
2023/10/07 02:10:59;;;;;;;16.80;4.38;;;;;;;16.37;100.00;101674.78;5044662;28;20049;-74
2023/10/07 02:13:30;;;;;;;16.13;5.05;;;;;;;16.38;100.00;101670.34;5059965;28;20781;-74
2023/10/07 02:15:57;;;;;;;15.20;5.20;;;;;;;16.41;100.00;101669.44;5017153;28;20106;-74
2023/10/07 02:18:27;;;;;;;18.25;5.15;;;;;;;16.43;100.00;101667.66;5046501;28;20025;-74
2023/10/07 02:21:06;;;;;;;13.65;4.47;;;;;;;16.44;100.00;101672.06;5062614;28;20060;-74
2023/10/07 02:23:40;;;;;;;15.57;4.07;;;;;;;16.46;100.00;101670.28;5034949;28;20053;-74
2023/10/07 02:26:18;;;;;;;11.50;4.43;;;;;;;16.47;100.00;101664.97;5042843;28;20049;-74
2023/10/07 02:28:51;;;;;;;17.58;4.30;;;;;;;16.48;100.00;101656.09;5061117;28;20540;-74
2023/10/07 02:31:20;;;;;;;17.58;4.50;;;;;;;16.50;100.00;101658.72;5016650;28;20062;-74
2023/10/07 02:33:53;;;;;;;20.77;4.40;;;;;;;16.52;100.00;101671.13;5065538;28;20044;-74
2023/10/07 02:36:31;;;;;;;14.55;4.05;;;;;;;16.54;100.00;101672.00;5046802;28;20044;-74
2023/10/07 02:39:18;;;;;;;13.95;4.60;;;;;;;16.56;100.00;101670.19;5047227;28;20041;-74
2023/10/07 02:41:47;;;;;;;11.88;4.22;;;;;;;16.56;100.00;101675.53;5063575;28;20044;-74
2023/10/07 02:44:16;;;;;;;17.20;4.80;;;;;;;16.61;100.00;101677.25;5021969;28;20377;-74
2023/10/07 02:46:52;;;;;;;18.45;4.30;;;;;;;16.60;100.00;101681.72;5019396;28;20048;-74
2023/10/07 02:49:21;;;;;;;17.50;4.05;;;;;;;16.64;100.00;101682.56;5048326;28;20048;-74
2023/10/07 02:51:58;;;;;;;17.27;4.10;;;;;;;16.65;100.00;101679.88;5066270;28;20413;-74
2023/10/07 02:54:33;;;;;;;17.02;4.88;;;;;;;16.65;100.00;101677.19;5057669;28;20048;-74
2023/10/07 02:57:08;;;;;;;22.58;4.35;;;;;;;16.66;100.00;101671.00;5045593;28;20041;-75
2023/10/07 02:59:41;;;;;;;14.60;3.67;;;;;;;16.67;100.00;101672.78;5062859;28;20409;-74
2023/10/07 03:04:58;;;;;;;20.40;4.88;;;;;;;16.69;100.00;101670.97;5063378;28;20056;-74
2023/10/07 03:07:26;;;;;;;15.02;3.75;;;;;;;16.70;100.00;101667.41;5055886;28;20055;-74
2023/10/07 03:10:16;;;;;;;16.60;4.25;;;;;;;16.71;100.00;101677.16;5034419;28;20049;-74
2023/10/07 03:12:48;;;;;;;10.00;3.30;;;;;;;16.72;100.00;101668.28;5046238;28;20482;-74
2023/10/07 03:15:39;;;;;;;15.00;4.20;;;;;;;16.73;100.00;101680.69;5047810;28;20048;-74
2023/10/07 03:18:21;;;;;;;14.30;4.60;;;;;;;16.74;100.00;101679.78;5000580;28;20051;-74
2023/10/07 03:21:00;;;;;;;18.88;4.00;;;;;;;16.74;100.00;101673.59;5060394;28;20045;-74
2023/10/07 03:23:32;;;;;;;20.08;4.72;;;;;;;16.75;100.00;101678.03;5041499;28;20052;-74
2023/10/07 03:28:36;;;;;;;20.90;4.72;;;;;;;16.76;100.00;101671.78;5060197;28;20045;-74
2023/10/07 03:31:10;;;;;;;14.32;3.55;;;;;;;16.77;100.00;101668.25;5060334;28;20429;-74
2023/10/07 03:33:48;;;;;;;21.25;4.95;;;;;;;16.77;100.00;101653.16;5046973;28;20048;-74
2023/10/07 03:39:16;;;;;;;16.02;3.85;;;;;;;16.77;100.00;101655.81;5068874;28;20540;-74
2023/10/07 03:41:51;;;;;;;17.98;4.70;;;;;;;16.77;100.00;101658.47;5051863;28;20040;-74
2023/10/07 03:44:21;;;;;;;15.15;4.07;;;;;;;16.77;100.00;101652.28;5049703;28;20060;-74
2023/10/07 03:46:54;;;;;;;18.48;3.83;;;;;;;16.77;100.00;101657.59;5026748;28;20470;-76
2023/10/07 03:49:23;;;;;;;20.75;4.70;;;;;;;16.77;100.00;101661.13;5065339;28;20045;-75
2023/10/07 03:54:56;;;;;;;15.40;4.18;;;;;;;16.78;100.00;101662.00;4978178;28;21052;-75
2023/10/07 03:57:24;;;;;;;13.40;4.18;;;;;;;16.77;100.00;101661.13;4974100;28;20050;-75
2023/10/07 03:59:53;;;;;;;20.45;5.05;;;;;;;16.78;100.00;101659.34;5017175;28;20057;-75
2023/10/07 04:02:34;;;;;;;14.73;3.92;;;;;;;16.79;100.00;101662.91;4993109;28;20044;-75
2023/10/07 04:05:12;;;;;;;20.42;4.75;;;;;;;16.77;100.00;101677.09;5022896;28;20060;-75
2023/10/07 04:07:43;;;;;;;15.60;3.88;;;;;;;16.79;100.00;101678.88;5047534;28;20068;-75
2023/10/07 04:12:44;;;;;;;16.58;4.13;;;;;;;16.78;100.00;101672.66;5031858;28;20647;-75
2023/10/07 04:15:12;;;;;;;13.50;3.50;;;;;;;16.77;100.00;101665.59;5058168;28;20041;-75
2023/10/07 04:17:42;;;;;;;18.50;4.05;;;;;;;16.78;100.00;101662.00;4997111;28;20067;-74
2023/10/07 04:23:01;;;;;;;14.73;4.07;;;;;;;16.77;100.00;101660.25;5014891;28;20051;-75
2023/10/07 04:25:32;;;;;;;18.42;3.75;;;;;;;16.76;100.00;101659.34;5060004;28;20115;-76
2023/10/07 04:28:06;;;;;;;12.82;4.07;;;;;;;16.77;100.00;101670.91;5051896;28;20048;-75
2023/10/07 04:30:46;;;;;;;18.65;4.43;;;;;;;16.76;100.00;101664.69;5062767;28;20053;-75
2023/10/07 04:33:17;;;;;;;16.83;4.40;;;;;;;16.76;100.00;101653.16;5040028;28;20045;-75
2023/10/07 04:35:50;;;;;;;18.73;5.15;;;;;;;16.76;100.00;101656.69;5038616;28;20049;-75
2023/10/07 04:41:30;;;;;;;24.90;4.82;;;;;;;16.76;100.00;101661.16;5066444;28;20052;-75
2023/10/07 04:46:23;;;;;;;16.05;4.43;;;;;;;16.76;100.00;101648.72;5049392;28;20060;-75
2023/10/07 04:48:56;;;;;;;19.75;4.97;;;;;;;16.75;100.00;101649.63;5016906;28;20048;-75
2023/10/07 04:54:00;;;;;;;15.20;4.80;;;;;;;16.75;100.00;101646.97;5057404;28;20049;-75
2023/10/07 04:56:31;;;;;;;17.40;5.82;;;;;;;16.76;100.00;101642.50;5060855;28;20281;-75
2023/10/07 04:59:06;;;;;;;17.40;4.28;;;;;;;16.76;100.00;101648.72;5052039;28;20045;-75
2023/10/07 05:01:34;;;;;;;17.73;5.20;;;;;;;16.74;100.00;101639.88;5054186;28;20045;-75
2023/10/07 05:04:04;;;;;;;14.60;4.35;;;;;;;16.74;100.00;101645.19;5049835;28;20052;-75
2023/10/07 05:06:36;;;;;;;13.57;4.30;;;;;;;16.72;100.00;101646.97;4986321;28;20055;-75
2023/10/07 05:09:10;;;;;;;10.25;3.55;;;;;;;16.71;100.00;101644.34;5057059;28;20040;-75
2023/10/07 05:11:43;;;;;;;20.02;4.40;;;;;;;16.71;100.00;101641.66;5035375;28;20076;-75
2023/10/07 05:14:10;;;;;;;12.45;4.05;;;;;;;16.69;100.00;101633.72;5057677;28;20044;-75
2023/10/07 05:16:39;;;;;;;13.32;4.53;;;;;;;16.69;100.00;101632.81;5030968;28;20045;-75
2023/10/07 05:19:09;;;;;;;14.98;4.60;;;;;;;16.67;100.00;101635.53;5052633;28;20044;-75
2023/10/07 05:21:39;;;;;;;14.93;4.28;;;;;;;16.66;100.00;101641.72;5036397;28;20053;-75
2023/10/07 05:24:09;;;;;;;17.20;3.53;;;;;;;16.67;100.00;101637.28;5056445;28;20051;-75
2023/10/07 05:26:40;;;;;;;13.25;3.40;;;;;;;16.65;100.00;101633.75;5062423;28;20056;-75
2023/10/07 05:29:12;;;;;;;16.83;4.72;;;;;;;16.63;100.00;101622.25;5062123;28;20056;-75
2023/10/07 05:31:42;;;;;;;10.55;3.20;;;;;;;16.63;100.00;101627.56;5037550;28;24774;-75
2023/10/07 05:34:10;;;;;;;18.53;5.23;;;;;;;16.61;100.00;101632.91;5047419;28;20063;-75
2023/10/07 05:36:38;;;;;;;15.20;3.72;;;;;;;16.61;100.00;101629.34;5019536;28;20048;-75
2023/10/07 05:39:08;;;;;;;14.63;4.32;;;;;;;16.61;100.00;101627.56;5048875;28;20048;-75
2023/10/07 05:41:39;;;;;;;15.23;3.67;;;;;;;16.61;100.00;101624.91;5030412;28;20418;-74
2023/10/07 05:44:10;;;;;;;19.30;3.67;;;;;;;16.61;100.00;101632.91;5058934;28;20061;-74
2023/10/07 05:46:38;;;;;;;14.23;3.90;;;;;;;16.61;100.00;101635.56;5042521;28;24306;-74
2023/10/07 05:49:05;;;;;;;17.90;3.80;;;;;;;16.61;100.00;101635.56;5043242;28;20052;-74
2023/10/07 05:51:35;;;;;;;12.98;3.28;;;;;;;16.62;100.00;101642.66;5011257;28;20048;-75
2023/10/07 05:54:05;;;;;;;11.02;3.13;;;;;;;16.61;100.00;101630.22;5065979;28;20059;-75
2023/10/07 05:56:32;;;;;;;13.93;3.67;;;;;;;16.62;100.00;101633.81;5050595;28;20058;-74
2023/10/07 05:59:01;;;;;;;10.88;3.22;;;;;;;16.64;100.00;101634.66;5048085;28;20052;-74
2023/10/07 06:01:33;;;;;;;15.32;3.92;;;;;;;16.62;100.00;101629.34;5033740;28;20041;-74
2023/10/07 06:04:01;;;;;;;14.95;4.68;;;;;;;16.65;100.00;101631.09;5034012;28;20049;-75
2023/10/07 06:06:30;;;;;;;13.23;3.35;;;;;;;16.65;100.00;101636.41;4998858;28;20056;-74
2023/10/07 06:09:00;;;;;;;14.10;4.03;;;;;;;16.64;100.00;101632.88;5060550;28;20053;-75
2023/10/07 06:11:29;;;;;;;14.05;4.20;;;;;;;16.63;100.00;101628.44;5062738;28;20442;-74
2023/10/07 06:13:56;;;;;;;10.65;3.10;;;;;;;16.63;100.00;101624.91;5046435;28;20053;-73
2023/10/07 06:16:24;;;;;;;11.45;3.30;;;;;;;16.61;100.00;101624.91;5038377;28;20041;-74
2023/10/07 06:18:51;;;;;;;10.00;3.40;;;;;;;16.59;100.00;101624.03;5031184;28;20048;-74
2023/10/07 06:21:27;;;;;;;12.65;3.25;;;;;;;16.58;100.00;101614.31;5045404;28;20055;-75
2023/10/07 06:23:58;;;;;;;18.13;3.58;;;;;;;16.57;100.00;101625.84;5015853;28;20047;-75
2023/10/07 06:26:30;;;;;;;11.98;3.38;;;;;;;16.55;100.00;101619.66;5055126;28;20048;-76
2023/10/07 06:29:05;;;;;;;13.43;3.30;;;;;;;16.53;100.00;101626.78;5053017;28;20485;-75
2023/10/07 06:31:33;;;;;;;10.73;3.67;;;;;;;16.52;100.00;101638.28;5045935;28;20063;-74
2023/10/07 06:34:12;;;;;;;15.23;3.83;;;;;;;16.49;100.00;101633.91;5034942;28;21302;-75
2023/10/07 06:36:40;;;;;;;17.92;4.20;;;;;;;16.48;100.00;101641.88;5063118;28;20406;-75
2023/10/07 06:39:08;;;;;;;21.80;3.70;;;;;;;16.46;100.00;101643.69;5020953;28;20045;-74
2023/10/07 06:41:35;;;;;;;16.95;3.97;;;;;;;16.45;100.00;101655.22;5050073;28;20056;-74
2023/10/07 06:44:03;;;;;;;13.63;4.90;;;;;;;16.43;100.00;101647.25;5037089;28;20497;-74
2023/10/07 06:46:42;;;;;;;11.45;3.53;;;;;;;16.42;100.00;101648.13;5014912;28;20052;-75
2023/10/07 06:49:18;;;;;;;15.85;3.70;;;;;;;16.40;100.00;101641.09;5054401;28;20041;-74
2023/10/07 06:51:53;;;;;;;16.25;2.90;;;;;;;16.39;100.00;101650.84;5048418;28;20508;-74
2023/10/07 06:54:23;;;;;;;14.30;3.00;;;;;;;16.37;100.00;101645.53;5010190;28;20044;-75
2023/10/07 06:56:54;;;;;;;10.70;4.30;;;;;;;16.35;100.00;101642.00;5027120;28;20040;-74
2023/10/07 06:59:28;;;;;;;8.70;3.45;;;;;;;16.34;100.00;101648.19;5041003;28;20314;-75
2023/10/07 07:02:05;;;;;;;13.15;3.13;;;;;;;16.35;100.00;101633.13;5040155;28;20063;-75
2023/10/07 07:04:33;;;;;;;6.93;2.90;;;;;;;16.33;100.00;101643.78;5059843;28;20045;-74
2023/10/07 07:07:16;;;;;;;9.27;4.55;;;;;;;16.33;100.00;101649.13;5051741;28;20045;-74
2023/10/07 07:12:22;;;;;;;10.43;3.60;;;;;;;16.34;100.00;101661.50;5069525;28;20044;-74
2023/10/07 07:14:50;;;;;;;10.63;3.13;;;;;;;16.34;100.00;101653.53;5050294;28;20501;-75
2023/10/07 07:22:43;;;;;;;13.32;2.60;;;;;;;16.32;100.00;101671.28;5046424;28;20051;-74
2023/10/07 07:25:17;;;;;;;12.38;3.40;;;;;;;16.33;100.00;101670.41;5000803;28;22226;-74
2023/10/07 07:27:45;;;;;;;7.32;2.70;;;;;;;16.33;100.00;101666.81;5060637;28;20434;-74
2023/10/07 07:30:19;;;;;;;10.18;3.72;;;;;;;16.35;100.00;101670.34;5037975;28;20045;-74
2023/10/07 07:32:59;;;;;;;13.52;3.03;;;;;;;16.35;100.00;101676.59;5042414;28;20048;-74
2023/10/07 07:35:38;;;;;;;9.65;3.00;;;;;;;16.35;100.00;101683.66;5036273;28;20036;-74
2023/10/07 07:38:21;;;;;;;8.88;3.22;;;;;;;16.36;100.00;101672.13;5053848;28;20498;-74
2023/10/07 07:40:52;;;;;;;10.93;3.88;;;;;;;16.36;100.00;101678.34;4999011;28;20746;-75
2023/10/07 07:43:19;;;;;;;7.80;2.97;;;;;;;16.33;100.00;101665.06;5044232;28;20048;-75
2023/10/07 07:45:56;;;;;;;14.65;3.70;;;;;;;16.33;100.00;101673.06;5020601;28;20057;-74
2023/10/07 07:48:25;;;;;;;11.45;2.75;;;;;;;16.34;100.00;101680.13;5060501;28;20056;-74
2023/10/07 07:50:55;;;;;;;13.55;3.38;;;;;;;16.34;100.00;101680.13;5044255;28;20043;-74
2023/10/07 07:53:22;;;;;;;13.88;2.85;;;;;;;16.34;100.00;101680.13;5042556;28;20052;-74
2023/10/07 07:55:56;;;;;;;12.18;3.60;;;;;;;16.34;100.00;101680.13;5045316;28;20671;-75
2023/10/07 07:58:25;;;;;;;10.27;3.03;;;;;;;16.35;100.00;101681.91;4986571;28;20502;-74
2023/10/07 08:00:59;;;;;;;8.23;2.63;;;;;;;16.36;100.00;101678.34;5055367;28;20048;-74
2023/10/07 08:03:26;;;;;;;10.32;2.90;;;;;;;16.36;100.00;101681.00;5045812;28;20048;-74
2023/10/07 08:05:54;;;;;;;12.27;3.00;;;;;;;16.37;100.00;101682.78;5018590;28;20040;-74
2023/10/07 08:08:24;;;;;;;8.98;2.65;;;;;;;16.39;100.00;101674.78;5035757;28;20056;-74
2023/10/07 08:10:54;;;;;;;7.43;2.38;;;;;;;16.41;100.00;101688.94;5024717;28;20040;-75
2023/10/07 08:13:23;;;;;;;14.60;3.50;;;;;;;16.41;100.00;101688.94;4976979;28;20033;-74
2023/10/07 08:15:51;;;;;;;11.63;3.03;;;;;;;16.42;100.00;101687.16;5063941;28;20091;-75
2023/10/07 08:18:31;;;;;;;14.25;3.88;;;;;;;16.44;100.00;101693.34;5028976;28;20055;-74
2023/10/07 08:21:16;;;;;;;17.67;3.23;;;;;;;16.46;100.00;101687.13;5044745;28;20052;-75
2023/10/07 08:23:45;;;;;;;9.65;3.35;;;;;;;16.48;100.00;101698.66;5030731;28;20055;-75
2023/10/07 08:26:20;;;;;;;9.65;2.80;;;;;;;16.52;100.00;101704.81;5050584;28;20041;-74
2023/10/07 08:31:37;;;;;;;12.18;3.38;;;;;;;16.61;100.00;101703.88;5048936;28;20045;-75
2023/10/07 08:34:15;;;;;;;8.85;3.45;;;;;;;16.66;100.00;101708.25;5038127;28;20056;-74
2023/10/07 08:36:43;;;;;;;11.00;3.20;;;;;;;16.71;100.00;101705.53;5035836;28;20063;-75
2023/10/07 08:39:11;;;;;;;15.65;3.05;;;;;;;16.74;100.00;101725.03;5060646;28;20062;-74
2023/10/07 08:41:47;;;;;;;14.90;3.80;;;;;;;16.77;100.00;101719.69;5063975;28;20052;-74
2023/10/07 08:44:17;;;;;;;16.35;3.33;;;;;;;16.82;100.00;101726.75;5019792;28;20052;-75
2023/10/07 08:46:52;;;;;;;14.13;2.88;;;;;;;16.87;100.00;101738.28;5042265;28;20053;-75
2023/10/07 08:49:27;;;;;;;11.32;3.72;;;;;;;16.91;100.00;101729.38;5046548;28;20052;-75
2023/10/07 08:51:56;;;;;;;14.07;3.58;;;;;;;16.93;100.00;101739.09;5061217;28;20052;-75
2023/10/07 08:54:31;;;;;;;14.15;3.33;;;;;;;16.95;100.00;101736.41;5043273;28;20037;-75
2023/10/07 08:57:09;;;;;;;16.17;3.40;;;;;;;16.98;100.00;101731.09;5059547;28;20041;-74
2023/10/07 08:59:40;;;;;;;9.50;2.90;;;;;;;17.02;100.00;101731.94;5030710;28;20051;-74
2023/10/07 09:02:17;;;;;;;8.13;2.90;;;;;;;17.05;100.00;101732.78;5063554;28;20039;-75
2023/10/07 09:04:44;;;;;;;13.88;3.45;;;;;;;17.08;100.00;101731.88;5019570;28;20434;-75
2023/10/07 09:07:11;;;;;;;10.82;2.78;;;;;;;17.08;100.00;101730.09;5050032;28;20048;-75
2023/10/07 09:09:39;;;;;;;10.85;3.10;;;;;;;17.11;100.00;101718.53;5020304;28;20429;-75
2023/10/07 09:12:28;;;;;;;9.30;3.63;;;;;;;17.17;100.00;101736.25;5064600;28;20059;-75
2023/10/07 09:14:58;;;;;;;10.50;2.95;;;;;;;17.18;100.00;101708.69;5011409;28;20060;-75
2023/10/07 09:17:29;;;;;;;14.57;3.33;;;;;;;17.20;100.00;101709.56;5064542;28;20036;-75
2023/10/07 09:20:00;;;;;;;12.00;3.75;;;;;;;17.22;100.00;101710.41;5039468;28;20044;-75
2023/10/07 09:22:35;;;;;;;11.90;3.20;;;;;;;17.22;100.00;101714.00;5048739;28;20056;-75
2023/10/07 09:25:17;;;;;;;11.43;3.20;;;;;;;17.26;100.00;101712.19;5033268;28;20049;-75
2023/10/07 09:27:56;;;;;;;11.05;4.07;;;;;;;17.27;100.00;101712.13;5062805;28;20043;-75
2023/10/07 09:33:17;;;;;;;7.85;2.72;;;;;;;17.33;100.00;101721.84;5042949;28;20063;-75
2023/10/07 09:35:47;;;;;;;9.07;3.28;;;;;;;17.31;100.00;101723.63;5033326;28;20056;-75
2023/10/07 09:38:33;;;;;;;13.73;3.33;;;;;;;17.30;100.00;101732.53;5046814;28;20048;-75
2023/10/07 09:43:42;;;;;;;12.93;3.53;;;;;;;17.25;100.00;101731.69;5029543;28;20060;-76
2023/10/07 09:46:10;;;;;;;9.50;3.38;;;;;;;17.24;100.00;101736.16;5015685;28;20049;-75
2023/10/07 09:48:51;;;;;;;16.13;3.50;;;;;;;17.20;100.00;101725.53;5058820;28;20060;-75
2023/10/07 09:51:28;;;;;;;8.13;3.08;;;;;;;17.19;100.00;101729.13;5050917;28;20052;-75
2023/10/07 09:54:10;;;;;;;11.68;3.45;;;;;;;17.19;100.00;101729.13;5032345;28;20059;-75
2023/10/07 09:57:21;;;;;;;9.18;3.17;;;;;;;17.19;100.00;101742.44;5050190;28;20048;-75
2023/10/07 10:03:39;;;;;;;14.07;3.72;;;;;;;17.21;100.00;101735.31;4939461;28;20049;-76
2023/10/07 10:06:47;;;;;;;9.68;4.00;;;;;;;17.20;100.00;101741.50;4987800;28;20477;-76
2023/10/07 10:09:23;;;;;;;24.20;3.63;;;;;;;17.21;100.00;101751.28;5068905;28;20056;-75
2023/10/07 10:12:16;;;;;;;17.08;3.67;;;;;;;17.21;100.00;101744.16;5040478;28;20044;-75
2023/10/07 10:15:50;;;;;;;;;;;;;;;17.22;100.00;101750.38;5052142;28;20044;-74
2023/10/07 10:17:48;;;;;;;19.95;4.18;;;;;;;17.22;100.00;101753.03;4996818;28;19932;-75
2023/10/07 10:20:21;;;;;;;14.05;4.18;;;;;;;17.25;100.00;101763.66;5071198;28;20052;-75
2023/10/07 10:22:50;;;;;;;14.43;3.65;;;;;;;17.25;100.00;101763.66;5050318;28;20059;-75
2023/10/07 10:28:06;;;;;;;15.95;3.90;;;;;;;17.29;100.00;101771.59;5040733;28;20047;-75
2023/10/07 10:30:45;;;;;;;15.82;4.28;;;;;;;17.32;100.00;101762.72;5017541;28;20048;-75
2023/10/07 10:33:19;;;;;;;17.70;4.55;;;;;;;17.36;100.00;101767.09;5005316;28;20493;-75
2023/10/07 10:35:57;;;;;;;12.30;3.92;;;;;;;17.39;100.00;101779.50;5059032;28;20060;-75
2023/10/07 10:38:38;;;;;;;9.27;3.28;;;;;;;17.44;100.00;101793.66;5046025;28;20049;-76
2023/10/07 10:41:08;;;;;;;15.35;3.75;;;;;;;17.50;100.00;101781.19;5055515;28;20059;-75
2023/10/07 10:43:35;;;;;;;12.52;3.60;;;;;;;17.59;100.00;101784.63;5049230;28;20824;-77
2023/10/07 10:46:27;;;;;;;18.48;4.35;;;;;;;17.68;100.00;101785.41;5065324;28;20055;-75
2023/10/07 10:48:54;;;;;;;15.50;4.05;;;;;;;17.75;100.00;101780.91;5014603;28;20041;-76
2023/10/07 10:51:27;;;;;;;11.70;3.90;;;;;;;17.80;100.00;101781.72;5077568;28;20048;-75
2023/10/07 10:53:55;;;;;;;10.43;3.97;;;;;;;17.84;100.00;101788.78;5019678;28;20040;-75
2023/10/07 10:56:22;;;;;;;11.88;3.67;;;;;;;17.91;100.00;101789.63;5063296;28;20485;-75
2023/10/07 10:58:53;;;;;;;17.55;4.20;;;;;;;18.00;100.00;101802.84;5058900;28;20036;-75
2023/10/07 11:01:21;;;;;;;9.25;4.05;;;;;;;18.01;100.00;101791.25;5046387;28;20048;-75
2023/10/07 11:03:49;;;;;;;19.85;4.80;;;;;;;18.05;100.00;101793.00;5044174;28;20750;-75
2023/10/07 11:06:18;;;;;;;16.88;4.15;;;;;;;18.07;100.00;101791.19;5007030;28;20381;-75
2023/10/07 11:08:46;;;;;;;12.98;4.07;;;;;;;18.06;100.00;101785.88;5061682;28;20047;-75
2023/10/07 11:11:14;;;;;;;16.27;3.80;;;;;;;18.08;100.00;101798.28;5033982;28;20041;-76
2023/10/07 11:13:44;;;;;;;13.43;4.07;;;;;;;18.07;100.00;101792.97;5030423;28;20051;-76
2023/10/07 11:16:11;;;;;;;19.25;4.43;;;;;;;18.02;100.00;101790.38;5075008;28;20048;-75
2023/10/07 11:18:45;;;;;;;11.95;4.28;;;;;;;17.98;100.00;101793.09;5063319;28;20044;-75
2023/10/07 11:21:15;;;;;;;15.77;4.13;;;;;;;17.91;100.00;101787.81;5020084;28;20200;-75
2023/10/07 11:23:55;;;;;;;13.00;4.18;;;;;;;17.86;100.00;101807.44;5061873;28;20078;-76
2023/10/07 11:26:26;;;;;;;9.35;3.65;;;;;;;17.79;100.00;101795.03;5051510;28;20382;-75
2023/10/07 11:28:56;;;;;;;15.77;4.20;;;;;;;17.75;100.00;101807.56;5042875;28;20041;-75
2023/10/07 11:31:33;;;;;;;14.32;4.57;;;;;;;17.72;100.00;101808.47;5038783;28;20036;-76
2023/10/07 11:34:01;;;;;;;12.52;4.22;;;;;;;17.68;100.00;101800.53;5042583;28;20052;-76
2023/10/07 11:36:29;;;;;;;12.55;3.53;;;;;;;17.66;100.00;101805.00;5012191;28;20064;-75
2023/10/07 11:38:56;;;;;;;16.92;5.03;;;;;;;17.62;100.00;101800.59;5044357;28;20044;-75
2023/10/07 11:41:24;;;;;;;16.98;5.07;;;;;;;17.60;100.00;101807.69;5031681;28;20128;-75
2023/10/07 11:43:52;;;;;;;16.65;5.05;;;;;;;17.57;100.00;101805.09;5044911;28;20494;-75
2023/10/07 11:46:20;;;;;;;12.25;3.47;;;;;;;17.54;100.00;101782.00;5048999;28;20067;-75
2023/10/07 11:48:47;;;;;;;14.65;4.05;;;;;;;17.52;100.00;101779.38;5040634;28;20049;-76
2023/10/07 11:51:15;;;;;;;15.13;3.30;;;;;;;17.50;100.00;101775.84;5030845;28;20057;-75
2023/10/07 11:53:42;;;;;;;12.88;4.15;;;;;;;17.46;100.00;101784.75;4987200;28;20053;-75
2023/10/07 11:56:14;;;;;;;11.57;3.50;;;;;;;17.46;100.00;101773.22;5049362;28;20410;-75
2023/10/07 11:58:46;;;;;;;14.80;3.97;;;;;;;17.44;100.00;101773.22;5058815;28;20052;-75
2023/10/07 12:01:13;;;;;;;16.77;4.00;;;;;;;17.43;100.00;101789.22;5054506;28;20048;-75
2023/10/07 12:03:43;;;;;;;15.35;3.92;;;;;;;17.43;100.00;101787.47;5045365;28;20044;-76
2023/10/07 12:06:11;;;;;;;20.77;5.07;;;;;;;17.43;100.00;101781.22;5044991;28;20051;-75
2023/10/07 12:08:39;;;;;;;13.80;4.25;;;;;;;17.44;100.00;101786.56;5021315;28;20318;-76
2023/10/07 12:11:08;;;;;;;9.63;3.67;;;;;;;17.43;100.00;101782.13;5039631;28;20103;-76
2023/10/07 12:13:35;;;;;;;13.80;3.58;;;;;;;17.43;100.00;101787.47;5050284;28;20144;-76
2023/10/07 12:16:02;;;;;;;20.02;4.72;;;;;;;17.43;100.00;101786.56;5036608;28;20056;-76
2023/10/07 12:18:32;;;;;;;19.35;4.20;;;;;;;17.42;100.00;101801.66;5059211;28;20053;-76
2023/10/07 12:21:09;;;;;;;12.35;3.90;;;;;;;17.40;100.00;101805.25;5061286;28;20052;-75
2023/10/07 12:23:41;;;;;;;10.77;3.88;;;;;;;17.40;100.00;101800.81;5029055;28;20049;-76
2023/10/07 12:26:11;;;;;;;13.13;3.43;;;;;;;17.36;100.00;101766.22;5028566;28;20055;-75
2023/10/07 12:28:42;;;;;;;15.65;4.07;;;;;;;17.35;100.00;101752.00;5063617;28;20306;-75
2023/10/07 12:31:12;;;;;;;12.98;3.80;;;;;;;17.36;100.00;101729.81;5036950;28;20532;-79
2023/10/07 12:33:39;;;;;;;17.08;4.07;;;;;;;17.37;100.00;101738.69;5001478;28;20819;-76